Time;durP1;ratioP1;P1;durP2;ratioP2;P2;SDS_P1;SDS_P2;PMS_P1;PMS_P2;Temp;Humidity;BMP_temperature;BMP_pressure;BME280_temperature;BME280_humidity;BME280_pressure;Samples;Min_cycle;Max_cycle;Signal;HPM_P1;HPM_P2
2024/01/13 00:00:57;;;;;;;14.60;6.22;;;4.40;99.90;;;;;;4986785;28;20038;-63
2024/01/13 00:03:23;;;;;;;15.98;6.55;;;4.40;99.90;;;;;;4986911;28;20038;-62
2024/01/13 00:05:49;;;;;;;16.83;6.40;;;4.40;99.90;;;;;;4989636;28;20038;-62
2024/01/13 00:08:15;;;;;;;14.82;5.97;;;4.40;99.90;;;;;;4992011;28;20106;-62
2024/01/13 00:10:41;;;;;;;11.13;5.13;;;4.40;99.90;;;;;;4985269;28;20410;-62
2024/01/13 00:13:08;;;;;;;16.35;6.25;;;4.40;99.90;;;;;;4988752;28;20022;-62
2024/01/13 00:15:35;;;;;;;14.00;5.50;;;4.40;99.90;;;;;;4990798;28;20145;-62
2024/01/13 00:18:01;;;;;;;15.98;6.05;;;4.40;99.90;;;;;;4986447;28;20034;-62
2024/01/13 00:20:27;;;;;;;14.60;5.22;;;4.30;99.90;;;;;;4986431;28;20513;-62
2024/01/13 00:22:53;;;;;;;10.93;5.45;;;4.30;99.90;;;;;;4991015;28;20034;-62
2024/01/13 00:25:18;;;;;;;12.55;4.78;;;4.30;99.90;;;;;;4985946;28;20088;-62
2024/01/13 00:27:44;;;;;;;14.88;5.95;;;4.30;99.90;;;;;;4987994;28;20026;-62
2024/01/13 00:30:10;;;;;;;13.43;4.75;;;4.30;99.90;;;;;;4987159;28;20026;-62
2024/01/13 00:32:36;;;;;;;12.80;4.10;;;4.20;99.90;;;;;;4978597;28;20069;-62
2024/01/13 00:35:02;;;;;;;11.60;4.57;;;4.30;99.90;;;;;;4989565;28;20042;-62
2024/01/13 00:37:28;;;;;;;15.75;5.10;;;4.30;99.90;;;;;;4988982;28;20383;-62
2024/01/13 00:39:54;;;;;;;11.25;4.53;;;4.30;99.90;;;;;;4991291;28;20100;-62
2024/01/13 00:42:19;;;;;;;9.70;4.05;;;4.30;99.90;;;;;;4985972;28;20038;-62
2024/01/13 00:44:45;;;;;;;10.73;4.50;;;4.40;99.90;;;;;;4989913;28;20498;-62
2024/01/13 00:47:11;;;;;;;10.75;5.18;;;4.40;99.90;;;;;;4986401;28;20061;-62
2024/01/13 00:49:36;;;;;;;14.98;5.30;;;4.40;99.90;;;;;;4985860;28;20920;-62
2024/01/13 00:52:02;;;;;;;9.70;4.30;;;4.40;99.90;;;;;;4990006;28;20033;-62
2024/01/13 00:54:28;;;;;;;13.40;5.10;;;4.40;99.90;;;;;;4985824;28;20037;-62
2024/01/13 00:56:54;;;;;;;12.25;4.20;;;4.40;99.90;;;;;;4984174;28;20106;-62
2024/01/13 00:59:20;;;;;;;9.93;4.72;;;4.40;99.90;;;;;;4983909;28;20114;-62
2024/01/13 01:01:45;;;;;;;8.75;4.03;;;4.40;99.90;;;;;;4985187;28;20181;-62
2024/01/13 01:04:11;;;;;;;7.20;3.35;;;4.40;99.90;;;;;;4985984;28;20030;-62
2024/01/13 01:06:37;;;;;;;10.25;4.10;;;4.40;99.90;;;;;;4986866;28;20486;-62
2024/01/13 01:09:03;;;;;;;7.13;4.10;;;4.50;99.90;;;;;;4986073;28;20022;-62
2024/01/13 01:11:28;;;;;;;8.65;3.67;;;4.50;99.90;;;;;;4985225;28;20037;-62
2024/01/13 01:13:55;;;;;;;7.63;3.83;;;4.40;99.90;;;;;;4993418;28;20600;-62
2024/01/13 01:16:21;;;;;;;9.52;4.28;;;4.50;99.90;;;;;;4985733;28;20062;-62
2024/01/13 01:18:46;;;;;;;10.50;4.45;;;4.50;99.90;;;;;;4985216;28;20583;-62
2024/01/13 01:21:14;;;;;;;9.80;4.28;;;4.50;99.90;;;;;;4985919;28;20048;-62
2024/01/13 01:23:40;;;;;;;8.77;4.35;;;4.50;99.90;;;;;;4985845;28;20550;-62
2024/01/13 01:26:06;;;;;;;11.18;4.38;;;4.50;99.90;;;;;;4994889;28;20042;-62
2024/01/13 01:28:31;;;;;;;9.32;3.40;;;4.50;99.90;;;;;;4988681;28;20141;-62
2024/01/13 01:30:57;;;;;;;10.45;3.92;;;4.50;99.90;;;;;;4985445;28;20027;-62
2024/01/13 01:33:23;;;;;;;8.68;3.53;;;4.50;99.90;;;;;;4985392;28;20113;-62
2024/01/13 01:35:49;;;;;;;9.02;3.15;;;4.50;99.90;;;;;;4986341;28;20037;-62
2024/01/13 01:38:14;;;;;;;8.15;3.55;;;4.50;99.90;;;;;;4988764;28;20043;-62
2024/01/13 01:40:41;;;;;;;9.80;3.88;;;4.50;99.90;;;;;;4985124;28;20030;-62
2024/01/13 01:43:07;;;;;;;8.32;3.13;;;4.50;99.90;;;;;;4989328;28;20038;-62
2024/01/13 01:45:33;;;;;;;6.82;3.17;;;4.50;99.90;;;;;;4985881;28;20053;-62
2024/01/13 01:48:01;;;;;;;10.02;3.58;;;4.50;99.90;;;;;;4985664;28;20038;-62
2024/01/13 01:50:27;;;;;;;7.72;3.25;;;4.50;99.90;;;;;;4985675;28;20113;-62
2024/01/13 01:52:53;;;;;;;8.82;3.83;;;4.50;99.90;;;;;;4989185;28;20038;-63
2024/01/13 01:55:19;;;;;;;8.30;3.42;;;4.50;99.90;;;;;;4986028;28;20042;-62
2024/01/13 01:57:45;;;;;;;9.18;2.67;;;4.50;99.90;;;;;;4989022;28;20040;-62
2024/01/13 02:00:12;;;;;;;10.25;3.78;;;4.50;99.90;;;;;;4987717;28;20509;-62
2024/01/13 02:02:38;;;;;;;8.25;3.03;;;4.50;99.90;;;;;;4985329;28;20034;-62
2024/01/13 02:05:04;;;;;;;8.05;3.85;;;4.50;99.90;;;;;;4985476;28;20089;-62
2024/01/13 02:07:32;;;;;;;6.53;3.20;;;4.50;99.90;;;;;;4984646;28;20038;-62
2024/01/13 02:09:58;;;;;;;6.57;3.70;;;4.50;99.90;;;;;;4984997;28;20056;-62
2024/01/13 02:12:25;;;;;;;7.57;3.45;;;4.40;99.90;;;;;;4986190;28;20030;-62
2024/01/13 02:14:54;;;;;;;8.85;4.15;;;4.50;99.90;;;;;;4985069;28;20042;-62
2024/01/13 02:17:21;;;;;;;7.90;3.28;;;4.50;99.90;;;;;;4987480;28;20034;-62
2024/01/13 02:19:46;;;;;;;10.10;4.07;;;4.50;99.90;;;;;;4984805;28;20394;-62
2024/01/13 02:22:12;;;;;;;7.72;3.60;;;4.40;99.90;;;;;;4984842;28;20034;-62
2024/01/13 02:24:38;;;;;;;10.02;4.50;;;4.40;99.90;;;;;;4985057;28;20031;-62
2024/01/13 02:27:04;;;;;;;6.88;3.55;;;4.40;99.90;;;;;;4985760;28;20035;-62
2024/01/13 02:29:29;;;;;;;8.25;4.22;;;4.50;99.90;;;;;;4985979;28;20027;-62
2024/01/13 02:31:55;;;;;;;7.50;4.03;;;4.40;99.90;;;;;;4987157;28;20402;-63
2024/01/13 02:34:21;;;;;;;9.82;4.03;;;4.50;99.90;;;;;;4986680;28;20030;-62
2024/01/13 02:36:46;;;;;;;7.82;3.83;;;4.50;99.90;;;;;;4985101;28;20038;-62
2024/01/13 02:39:13;;;;;;;6.97;3.35;;;4.50;99.90;;;;;;4993457;28;20045;-62
2024/01/13 02:41:38;;;;;;;7.60;3.70;;;4.40;99.90;;;;;;4985189;28;20049;-61
2024/01/13 02:44:04;;;;;;;7.10;3.53;;;4.50;99.90;;;;;;4984577;28;20390;-62
2024/01/13 02:46:30;;;;;;;8.85;3.85;;;4.40;99.90;;;;;;4984979;28;20042;-62
2024/01/13 02:48:57;;;;;;;10.70;4.30;;;4.40;99.90;;;;;;4985446;28;20042;-62
2024/01/13 02:51:23;;;;;;;8.77;4.43;;;4.30;99.90;;;;;;4988298;28;20402;-62
2024/01/13 02:53:49;;;;;;;9.18;4.70;;;4.30;99.90;;;;;;4990676;28;20038;-62
2024/01/13 02:56:15;;;;;;;10.57;4.90;;;4.30;99.90;;;;;;4987945;28;20042;-62
2024/01/13 02:58:41;;;;;;;12.85;4.45;;;4.30;99.90;;;;;;4987448;28;20031;-62
2024/01/13 03:01:07;;;;;;;9.68;4.40;;;4.30;99.90;;;;;;4988329;28;20120;-63
2024/01/13 03:03:34;;;;;;;10.10;5.10;;;4.20;99.90;;;;;;4992144;28;20042;-62
2024/01/13 03:06:00;;;;;;;10.73;4.93;;;4.20;99.90;;;;;;4992401;28;20041;-62
2024/01/13 03:08:26;;;;;;;6.97;4.50;;;4.10;99.90;;;;;;4992354;28;20041;-62
2024/01/13 03:10:52;;;;;;;8.80;4.90;;;4.20;99.90;;;;;;4992262;28;20037;-62
2024/01/13 03:13:18;;;;;;;8.73;4.47;;;4.20;99.90;;;;;;4988076;28;20030;-62
2024/01/13 03:15:44;;;;;;;11.48;4.55;;;4.20;99.90;;;;;;4987941;28;20175;-62
2024/01/13 03:18:09;;;;;;;10.10;4.68;;;4.30;99.90;;;;;;4987757;28;20204;-62
2024/01/13 03:20:35;;;;;;;10.15;4.85;;;4.30;99.90;;;;;;4987522;28;20069;-62
2024/01/13 03:23:01;;;;;;;8.02;4.63;;;4.20;99.90;;;;;;4987785;28;20031;-62
2024/01/13 03:25:27;;;;;;;11.48;5.18;;;4.20;99.90;;;;;;4987748;28;20483;-62
2024/01/13 03:27:52;;;;;;;9.10;5.07;;;4.30;99.90;;;;;;4987867;28;20114;-62
2024/01/13 03:30:18;;;;;;;9.27;4.68;;;4.30;99.90;;;;;;4987602;28;20113;-62
2024/01/13 03:32:44;;;;;;;8.15;4.43;;;4.30;99.90;;;;;;4991392;28;20061;-62
2024/01/13 03:35:10;;;;;;;9.27;4.80;;;4.30;99.90;;;;;;4999052;28;20041;-62
2024/01/13 03:37:36;;;;;;;8.05;3.83;;;4.30;99.90;;;;;;4987418;28;20037;-62
2024/01/13 03:40:02;;;;;;;7.82;4.25;;;4.30;99.90;;;;;;4987642;28;20461;-62
2024/01/13 03:42:28;;;;;;;10.43;4.88;;;4.40;99.90;;;;;;4987209;28;20482;-62
2024/01/13 03:44:54;;;;;;;10.85;5.28;;;4.40;99.90;;;;;;4987351;28;20043;-62
2024/01/13 03:47:22;;;;;;;9.98;5.00;;;4.40;99.90;;;;;;4995623;28;20038;-62
2024/01/13 03:49:48;;;;;;;9.43;4.70;;;4.30;99.90;;;;;;4989849;28;20092;-62
2024/01/13 03:52:14;;;;;;;6.97;3.97;;;4.30;99.90;;;;;;4990810;28;20054;-62
2024/01/13 03:54:40;;;;;;;9.13;4.93;;;4.30;99.90;;;;;;4987522;28;20035;-63
2024/01/13 03:57:06;;;;;;;8.35;4.50;;;4.30;99.90;;;;;;4984234;28;20037;-63
2024/01/13 03:59:32;;;;;;;8.45;4.20;;;4.30;99.90;;;;;;4986487;28;20526;-62
2024/01/13 04:01:57;;;;;;;7.90;4.53;;;4.30;99.90;;;;;;4990463;28;20038;-63
2024/01/13 04:04:23;;;;;;;10.02;3.92;;;4.40;99.90;;;;;;4989904;28;20022;-62
2024/01/13 04:06:49;;;;;;;7.85;4.13;;;4.40;99.90;;;;;;4994502;28;20053;-62
2024/01/13 04:09:14;;;;;;;7.75;4.15;;;4.40;99.90;;;;;;4988586;28;20030;-62
2024/01/13 04:11:40;;;;;;;11.18;5.50;;;4.40;99.90;;;;;;4987042;28;20041;-62
2024/01/13 04:14:06;;;;;;;11.45;5.30;;;4.40;99.90;;;;;;4986813;28;20046;-62
2024/01/13 04:16:32;;;;;;;9.05;5.28;;;4.40;99.90;;;;;;4988046;28;20049;-62
2024/01/13 04:18:57;;;;;;;8.80;4.85;;;4.40;99.90;;;;;;4986476;28;20118;-62
2024/01/13 04:21:23;;;;;;;9.60;4.88;;;4.40;99.90;;;;;;4986483;28;20056;-62
2024/01/13 04:23:52;;;;;;;9.57;4.95;;;4.30;99.90;;;;;;4986542;28;20072;-62
2024/01/13 04:26:20;;;;;;;11.05;5.53;;;4.30;99.90;;;;;;4989837;28;20413;-62
2024/01/13 04:28:45;;;;;;;11.68;6.20;;;4.30;99.90;;;;;;4987218;28;20042;-62
2024/01/13 04:31:11;;;;;;;12.38;6.05;;;4.30;99.90;;;;;;4986002;28;20034;-62
2024/01/13 04:33:37;;;;;;;12.63;5.30;;;4.30;99.90;;;;;;4986321;28;20092;-62
2024/01/13 04:36:04;;;;;;;10.95;5.45;;;4.30;99.90;;;;;;4986668;28;20070;-62
2024/01/13 04:38:29;;;;;;;12.25;5.88;;;4.30;99.90;;;;;;4986328;28;20538;-62
2024/01/13 04:40:55;;;;;;;13.25;5.85;;;4.30;99.90;;;;;;4986418;28;20049;-62
2024/01/13 04:43:21;;;;;;;12.25;6.13;;;4.30;99.90;;;;;;4989083;28;20694;-62
2024/01/13 04:45:47;;;;;;;12.40;5.93;;;4.40;99.90;;;;;;4985912;28;20121;-62
2024/01/13 04:48:15;;;;;;;10.15;5.53;;;4.40;99.90;;;;;;4989908;28;20129;-62
2024/01/13 04:50:41;;;;;;;9.57;5.18;;;4.40;99.90;;;;;;4989980;28;20037;-62
2024/01/13 04:53:07;;;;;;;11.02;5.82;;;4.40;99.90;;;;;;4987468;28;20034;-62
2024/01/13 04:55:32;;;;;;;10.02;5.53;;;4.40;99.90;;;;;;5005493;28;20045;-62
2024/01/13 04:57:58;;;;;;;11.02;4.88;;;4.40;99.90;;;;;;4985715;28;20068;-62
2024/01/13 05:00:24;;;;;;;9.82;5.30;;;4.40;99.90;;;;;;4986024;28;20027;-62
2024/01/13 05:02:50;;;;;;;9.95;5.00;;;4.40;99.90;;;;;;4989669;28;20040;-62
2024/01/13 05:05:15;;;;;;;10.82;5.40;;;4.40;99.90;;;;;;4986096;28;20144;-62
2024/01/13 05:07:41;;;;;;;10.48;5.57;;;4.40;99.90;;;;;;4985689;28;20110;-62
2024/01/13 05:10:08;;;;;;;10.32;5.25;;;4.30;99.90;;;;;;4985840;28;20100;-65
2024/01/13 05:12:33;;;;;;;9.32;5.40;;;4.20;99.90;;;;;;4985060;28;20030;-63
2024/01/13 05:14:59;;;;;;;8.23;4.70;;;4.20;99.90;;;;;;4986324;28;20034;-62
2024/01/13 05:17:25;;;;;;;9.75;5.10;;;4.20;99.90;;;;;;4989311;28;20042;-62
2024/01/13 05:19:51;;;;;;;10.77;5.50;;;4.20;99.90;;;;;;4989993;28;20048;-62
2024/01/13 05:22:16;;;;;;;8.77;4.97;;;4.20;99.90;;;;;;4985592;28;20129;-62
2024/01/13 05:24:42;;;;;;;8.98;5.07;;;4.10;99.90;;;;;;4985642;28;20088;-62
2024/01/13 05:27:08;;;;;;;9.65;5.50;;;4.10;99.90;;;;;;4985630;28;20038;-62
2024/01/13 05:29:34;;;;;;;10.52;4.90;;;4.20;99.90;;;;;;4985339;28;20027;-62
2024/01/13 05:31:59;;;;;;;9.10;4.90;;;4.20;99.90;;;;;;4985266;28;20790;-61
2024/01/13 05:34:25;;;;;;;7.55;4.43;;;4.20;99.90;;;;;;4985483;28;20497;-62
2024/01/13 05:36:51;;;;;;;9.57;5.22;;;4.10;99.90;;;;;;4985937;28;20033;-62
2024/01/13 05:39:16;;;;;;;7.72;3.97;;;4.20;99.90;;;;;;4985291;28;20062;-62
2024/01/13 05:41:42;;;;;;;7.50;4.10;;;4.20;99.90;;;;;;4986042;28;20553;-62
2024/01/13 05:44:08;;;;;;;6.57;3.67;;;4.20;99.90;;;;;;4982476;28;20046;-62
2024/01/13 05:46:34;;;;;;;7.60;4.22;;;4.20;99.90;;;;;;4988835;28;20030;-62
2024/01/13 05:49:01;;;;;;;7.45;3.92;;;4.10;99.90;;;;;;4986888;28;20062;-62
2024/01/13 05:51:28;;;;;;;7.10;3.97;;;4.10;99.90;;;;;;4988219;28;20427;-62
2024/01/13 05:53:54;;;;;;;8.65;3.67;;;4.10;99.90;;;;;;4981648;28;20100;-62
2024/01/13 05:56:20;;;;;;;7.95;4.22;;;4.10;99.90;;;;;;4989208;28;20082;-62
2024/01/13 05:58:45;;;;;;;6.85;3.88;;;4.10;99.90;;;;;;4984841;28;20042;-61
2024/01/13 06:01:11;;;;;;;7.18;3.65;;;4.10;99.90;;;;;;4985243;28;20538;-62
2024/01/13 06:03:37;;;;;;;5.30;3.13;;;4.10;99.90;;;;;;4986675;28;20050;-62
2024/01/13 06:06:03;;;;;;;8.40;4.18;;;4.10;99.90;;;;;;4985587;28;20042;-62
2024/01/13 06:08:29;;;;;;;8.20;4.70;;;4.10;99.90;;;;;;4984877;28;20027;-62
2024/01/13 06:10:55;;;;;;;5.03;2.97;;;4.00;99.90;;;;;;4985051;28;20039;-62
2024/01/13 06:13:20;;;;;;;5.47;3.38;;;4.00;99.90;;;;;;4988982;28;20092;-62
2024/01/13 06:15:46;;;;;;;5.90;3.35;;;4.00;99.90;;;;;;4985702;28;20046;-63
2024/01/13 06:18:13;;;;;;;6.10;3.33;;;4.00;99.90;;;;;;4989224;28;20038;-62
2024/01/13 06:20:39;;;;;;;5.32;2.80;;;4.10;99.90;;;;;;4986793;28;20581;-62
2024/01/13 06:23:06;;;;;;;6.10;3.58;;;4.10;99.90;;;;;;4986226;28;20030;-62
2024/01/13 06:25:32;;;;;;;5.03;3.05;;;4.10;99.90;;;;;;4988709;28;20034;-62
2024/01/13 06:27:58;;;;;;;5.05;3.15;;;4.10;99.90;;;;;;4988414;28;20037;-62
2024/01/13 06:30:23;;;;;;;3.83;2.50;;;4.00;99.90;;;;;;4989080;28;20030;-62
2024/01/13 06:32:49;;;;;;;7.13;4.20;;;4.00;99.90;;;;;;4992650;28;20034;-62
2024/01/13 06:35:15;;;;;;;7.32;5.22;;;4.10;99.90;;;;;;4988516;28;20034;-62
2024/01/13 06:37:41;;;;;;;6.57;4.85;;;4.00;99.90;;;;;;4987668;28;20041;-62
2024/01/13 06:40:08;;;;;;;7.25;3.22;;;3.80;99.90;;;;;;4988656;28;20065;-62
2024/01/13 06:42:34;;;;;;;3.97;2.90;;;3.80;99.90;;;;;;4988478;28;20577;-62
2024/01/13 06:45:00;;;;;;;4.88;3.05;;;3.80;99.90;;;;;;4988670;28;20156;-62
2024/01/13 06:47:26;;;;;;;5.40;3.13;;;3.80;99.90;;;;;;4987760;28;20487;-62
2024/01/13 06:49:51;;;;;;;6.97;4.97;;;3.80;99.90;;;;;;4988107;28;20069;-62
2024/01/13 06:52:17;;;;;;;9.77;6.00;;;3.70;99.90;;;;;;4989249;28;20662;-62
2024/01/13 06:54:43;;;;;;;5.07;3.22;;;3.70;99.90;;;;;;4993104;28;20030;-62
2024/01/13 06:57:09;;;;;;;5.40;3.70;;;3.70;99.90;;;;;;4987207;28;20031;-62
2024/01/13 06:59:34;;;;;;;9.38;6.53;;;3.70;99.90;;;;;;5004085;28;20125;-62
2024/01/13 07:02:00;;;;;;;7.97;5.40;;;3.50;99.90;;;;;;4992339;28;20034;-62
2024/01/13 07:04:28;;;;;;;6.15;4.10;;;3.50;99.90;;;;;;4996906;28;20116;-63
2024/01/13 07:06:54;;;;;;;4.53;3.15;;;3.50;99.90;;;;;;4988412;28;20026;-62
2024/01/13 07:09:20;;;;;;;5.57;2.72;;;3.60;99.90;;;;;;4987491;28;20022;-62
2024/01/13 07:11:49;;;;;;;4.75;2.83;;;3.70;99.90;;;;;;4987874;28;20038;-62
2024/01/13 07:14:15;;;;;;;4.03;2.80;;;3.70;99.90;;;;;;4991745;28;20038;-62
2024/01/13 07:16:41;;;;;;;4.72;3.17;;;3.80;99.90;;;;;;4987642;28;20042;-62
2024/01/13 07:19:07;;;;;;;5.72;3.90;;;3.80;99.90;;;;;;4987791;28;20061;-61
2024/01/13 07:21:33;;;;;;;4.32;2.38;;;3.70;99.90;;;;;;4987292;28;20130;-62
2024/01/13 07:23:59;;;;;;;3.35;2.40;;;3.70;99.90;;;;;;4991971;28;20117;-62
2024/01/13 07:26:25;;;;;;;3.83;2.15;;;3.80;99.90;;;;;;4993079;28;20034;-62
2024/01/13 07:28:50;;;;;;;5.00;2.83;;;3.80;99.90;;;;;;4991295;28;20629;-62
2024/01/13 07:31:16;;;;;;;4.60;2.50;;;3.80;99.90;;;;;;4993232;28;20129;-62
2024/01/13 07:33:42;;;;;;;4.32;2.80;;;3.80;99.90;;;;;;4987814;28;20026;-62
2024/01/13 07:36:08;;;;;;;4.43;2.50;;;3.70;99.90;;;;;;4997102;28;20034;-63
2024/01/13 07:38:34;;;;;;;4.00;2.60;;;3.70;99.90;;;;;;4989186;28;20034;-62
2024/01/13 07:40:59;;;;;;;5.18;2.50;;;3.70;99.90;;;;;;4993406;28;20859;-62
2024/01/13 07:43:25;;;;;;;6.75;3.83;;;3.50;99.90;;;;;;4987075;28;20498;-62
2024/01/13 07:45:51;;;;;;;19.67;12.02;;;3.50;99.90;;;;;;4987025;28;20034;-62
2024/01/13 07:48:16;;;;;;;10.90;5.63;;;3.60;99.90;;;;;;5001879;28;20031;-62
2024/01/13 07:50:42;;;;;;;43.17;21.35;;;3.60;99.90;;;;;;4986960;28;20026;-62
2024/01/13 07:53:08;;;;;;;9.30;5.22;;;3.70;99.90;;;;;;4987477;28;20038;-62
2024/01/13 07:55:34;;;;;;;6.80;4.22;;;3.80;99.90;;;;;;4986962;28;20038;-62
2024/01/13 07:57:59;;;;;;;3.95;2.70;;;3.80;99.90;;;;;;4986781;28;20041;-62
2024/01/13 08:00:27;;;;;;;3.88;2.85;;;3.70;99.90;;;;;;4986835;28;20494;-61
2024/01/13 08:02:53;;;;;;;4.28;2.65;;;3.70;99.90;;;;;;4987267;28;20034;-62
2024/01/13 08:05:19;;;;;;;6.18;3.75;;;3.70;99.90;;;;;;4990895;28;20225;-61
2024/01/13 08:07:45;;;;;;;5.25;3.40;;;3.50;99.90;;;;;;4988659;28;20121;-62
2024/01/13 08:10:11;;;;;;;6.00;3.13;;;3.40;99.90;;;;;;4986930;28;20433;-62
2024/01/13 08:12:36;;;;;;;4.47;3.20;;;3.50;99.90;;;;;;4988276;28;20037;-63
2024/01/13 08:15:04;;;;;;;6.60;3.67;;;3.60;99.90;;;;;;4976918;28;20042;-65
2024/01/13 08:17:29;;;;;;;6.38;3.70;;;3.80;99.90;;;;;;4990271;28;20065;-62
2024/01/13 08:19:55;;;;;;;4.40;2.60;;;3.90;99.90;;;;;;4992562;28;20748;-63
2024/01/13 08:22:21;;;;;;;4.55;2.92;;;4.00;99.90;;;;;;4995504;28;20037;-63
2024/01/13 08:24:47;;;;;;;4.97;3.33;;;4.00;99.90;;;;;;4987876;28;20092;-63
2024/01/13 08:27:13;;;;;;;3.30;2.25;;;4.00;99.90;;;;;;4988509;28;20088;-63
2024/01/13 08:29:38;;;;;;;6.55;3.20;;;4.10;99.90;;;;;;4985242;28;20026;-63
2024/01/13 08:32:04;;;;;;;5.10;2.78;;;4.10;99.90;;;;;;4986497;28;20034;-63
2024/01/13 08:34:30;;;;;;;5.07;3.13;;;4.10;99.90;;;;;;4985763;28;20836;-63
2024/01/13 08:36:56;;;;;;;4.13;2.33;;;4.00;99.90;;;;;;4985776;28;20473;-63
2024/01/13 08:39:22;;;;;;;4.93;2.92;;;4.10;99.90;;;;;;4990042;28;20092;-60
2024/01/13 08:41:48;;;;;;;6.07;3.40;;;4.20;99.90;;;;;;4995953;28;20099;-60
2024/01/13 08:44:15;;;;;;;11.82;9.05;;;4.30;99.90;;;;;;4993535;28;20038;-60
2024/01/13 08:46:41;;;;;;;6.93;4.75;;;4.30;99.90;;;;;;4993618;28;20026;-61
2024/01/13 08:49:08;;;;;;;4.10;2.45;;;4.30;99.90;;;;;;4996425;28;20491;-60
2024/01/13 08:51:34;;;;;;;3.83;2.45;;;4.30;99.90;;;;;;4991002;28;20038;-60
2024/01/13 08:54:00;;;;;;;3.00;1.75;;;4.20;99.90;;;;;;4995635;28;20109;-60
2024/01/13 08:56:26;;;;;;;2.88;2.05;;;4.20;99.90;;;;;;4991525;28;20752;-60
2024/01/13 08:58:52;;;;;;;3.05;2.17;;;4.30;99.90;;;;;;4990424;28;20207;-60
2024/01/13 09:01:18;;;;;;;4.78;2.65;;;4.30;99.90;;;;;;4991906;28;20468;-60
2024/01/13 09:03:45;;;;;;;4.95;2.60;;;4.40;99.90;;;;;;4995138;28;20077;-60
2024/01/13 09:06:11;;;;;;;3.92;2.40;;;4.30;99.90;;;;;;4997471;28;20038;-60
2024/01/13 09:08:38;;;;;;;5.78;2.85;;;4.30;99.90;;;;;;4995378;28;20049;-60
2024/01/13 09:11:05;;;;;;;2.92;2.05;;;4.30;99.90;;;;;;4992094;28;20038;-60
2024/01/13 09:13:30;;;;;;;3.72;2.08;;;4.10;99.90;;;;;;4992572;28;20066;-60
2024/01/13 09:15:58;;;;;;;3.42;2.35;;;4.00;99.90;;;;;;4988965;28;20038;-60
2024/01/13 09:18:25;;;;;;;3.80;2.83;;;4.20;99.90;;;;;;4987683;28;20030;-60
2024/01/13 09:20:51;;;;;;;11.65;4.80;;;4.50;99.90;;;;;;4991600;28;20092;-60
2024/01/13 09:23:16;;;;;;;10.52;4.03;;;4.50;99.90;;;;;;4992077;28;20065;-60
2024/01/13 09:25:42;;;;;;;5.05;2.90;;;4.50;99.90;;;;;;4991972;28;20132;-60
2024/01/13 09:28:09;;;;;;;3.53;2.60;;;4.60;99.90;;;;;;4992909;28;20126;-61
2024/01/13 09:30:36;;;;;;;2.95;2.00;;;4.60;99.90;;;;;;4989945;28;20028;-60
2024/01/13 09:33:02;;;;;;;6.93;2.63;;;4.50;99.90;;;;;;5005073;28;20189;-60
2024/01/13 09:35:31;;;;;;;5.00;2.92;;;4.60;99.90;;;;;;4987941;28;20037;-60
2024/01/13 09:37:58;;;;;;;2.85;2.03;;;4.70;99.90;;;;;;4990359;28;20397;-60
2024/01/13 09:40:25;;;;;;;5.18;3.00;;;4.40;99.90;;;;;;4987074;28;20041;-63
2024/01/13 09:43:08;;;;;;;3.50;2.88;;;4.40;99.90;;;;;;4985295;28;20045;-63
2024/01/13 09:45:38;;;;;;;2.95;2.33;;;4.50;99.90;;;;;;4985581;28;20038;-63
2024/01/13 09:48:08;;;;;;;2.60;1.90;;;4.60;99.90;;;;;;4988089;28;20541;-62
2024/01/13 09:50:37;;;;;;;2.45;1.77;;;4.50;99.90;;;;;;4984316;28;20045;-62
2024/01/13 09:53:07;;;;;;;3.88;2.10;;;4.50;99.90;;;;;;4981301;28;20096;-63
2024/01/13 09:55:34;;;;;;;2.78;2.08;;;4.40;99.90;;;;;;4987076;28;20054;-63
2024/01/13 09:58:00;;;;;;;2.58;1.90;;;4.40;99.90;;;;;;4987097;28;20767;-63
2024/01/13 10:00:30;;;;;;;2.88;1.83;;;4.40;99.90;;;;;;4993029;28;20037;-63
2024/01/13 10:02:57;;;;;;;3.55;2.28;;;4.00;99.90;;;;;;4995205;28;20045;-63
2024/01/13 10:05:23;;;;;;;2.80;2.25;;;4.00;99.90;;;;;;4988621;28;20514;-63
2024/01/13 10:07:52;;;;;;;3.25;2.60;;;4.00;99.90;;;;;;4988927;28;20038;-63
2024/01/13 10:10:19;;;;;;;3.97;3.17;;;4.10;99.90;;;;;;4992215;28;20042;-63
2024/01/13 10:12:45;;;;;;;3.28;2.10;;;3.80;99.90;;;;;;4990647;28;20027;-62
2024/01/13 10:15:15;;;;;;;2.08;1.60;;;3.90;99.90;;;;;;4990841;28;20034;-63
2024/01/13 10:17:41;;;;;;;3.20;2.22;;;3.90;99.90;;;;;;4990619;28;20125;-63
2024/01/13 10:20:13;;;;;;;3.40;2.22;;;4.10;99.90;;;;;;4992489;28;20049;-63
2024/01/13 10:22:41;;;;;;;2.65;2.25;;;4.20;99.90;;;;;;4985111;28;20101;-62
2024/01/13 10:25:07;;;;;;;2.78;2.10;;;4.20;99.90;;;;;;4988748;28;20406;-63
2024/01/13 10:27:35;;;;;;;3.03;1.70;;;4.30;99.90;;;;;;4988260;28;20047;-63
2024/01/13 10:30:02;;;;;;;4.55;3.47;;;4.50;99.90;;;;;;4988766;28;20049;-63
2024/01/13 10:32:28;;;;;;;3.75;2.35;;;4.30;99.90;;;;;;4988672;28;20057;-62
2024/01/13 10:34:54;;;;;;;3.22;2.72;;;4.30;99.90;;;;;;4993208;28;20033;-63
2024/01/13 10:37:20;;;;;;;3.60;2.85;;;4.40;99.90;;;;;;4986862;28;20045;-63
2024/01/13 10:39:46;;;;;;;3.03;2.35;;;4.20;99.90;;;;;;4987617;28;20482;-63
2024/01/13 10:42:19;;;;;;;6.55;4.05;;;4.20;99.90;;;;;;4987899;28;20133;-63
2024/01/13 10:44:56;;;;;;;3.95;3.00;;;4.30;99.90;;;;;;4989378;28;20481;-63
2024/01/13 10:47:34;;;;;;;3.33;2.35;;;4.40;99.90;;;;;;4990723;28;20386;-63
2024/01/13 10:50:00;;;;;;;3.83;2.65;;;4.50;99.90;;;;;;4993230;28;20038;-63
2024/01/13 10:52:57;;;;;;;2.67;1.90;;;4.50;99.90;;;;;;4988193;28;20037;-63
2024/01/13 10:55:24;;;;;;;4.45;4.05;;;4.50;99.90;;;;;;4988797;28;20045;-63
2024/01/13 10:57:51;;;;;;;4.10;2.88;;;4.40;99.90;;;;;;4989086;28;20080;-63
2024/01/13 11:00:19;;;;;;;3.55;3.10;;;4.40;99.90;;;;;;4988040;28;20042;-63
2024/01/13 11:02:47;;;;;;;3.15;2.25;;;4.30;99.90;;;;;;4989006;28;20513;-62
2024/01/13 11:05:14;;;;;;;4.65;1.95;;;4.30;99.90;;;;;;4991180;28;20080;-63
2024/01/13 11:07:40;;;;;;;3.28;2.63;;;4.40;99.90;;;;;;4988805;28;20030;-63
2024/01/13 11:10:13;;;;;;;5.10;3.35;;;4.20;99.90;;;;;;5003681;28;20034;-63
2024/01/13 11:12:51;;;;;;;4.35;2.28;;;4.20;99.90;;;;;;4991118;28;20105;-63
2024/01/13 11:15:26;;;;;;;7.00;3.90;;;4.20;99.90;;;;;;4984349;28;20049;-63
2024/01/13 11:17:52;;;;;;;2.33;2.10;;;4.30;99.90;;;;;;4986526;28;20034;-63
2024/01/13 11:20:18;;;;;;;6.53;5.93;;;4.30;99.90;;;;;;4986695;28;21124;-63
2024/01/13 11:22:57;;;;;;;5.47;4.35;;;4.10;99.90;;;;;;4991062;28;20030;-62
2024/01/13 11:25:25;;;;;;;5.70;2.58;;;4.00;99.90;;;;;;4987432;28;20072;-63
2024/01/13 11:27:59;;;;;;;7.82;3.83;;;4.10;99.90;;;;;;4990343;28;20030;-63
2024/01/13 11:30:35;;;;;;;6.18;3.97;;;4.30;99.90;;;;;;4985511;28;20065;-63
2024/01/13 11:33:13;;;;;;;14.55;8.82;;;4.20;99.90;;;;;;4992376;28;20037;-62
2024/01/13 11:35:40;;;;;;;3.25;2.08;;;4.20;99.90;;;;;;4987315;28;20038;-63
2024/01/13 11:38:06;;;;;;;8.35;5.57;;;4.20;99.90;;;;;;4990211;28;20042;-63
2024/01/13 11:40:33;;;;;;;3.67;2.47;;;4.10;99.90;;;;;;4987559;28;20038;-63
2024/01/13 11:43:07;;;;;;;5.03;3.35;;;4.20;99.90;;;;;;4990487;28;20022;-63
2024/01/13 11:45:42;;;;;;;7.65;3.83;;;4.20;99.90;;;;;;4991195;28;20046;-63
2024/01/13 11:48:29;;;;;;;15.07;8.70;;;4.10;99.90;;;;;;4989393;28;20126;-63
2024/01/13 11:50:55;;;;;;;6.72;4.07;;;4.00;99.90;;;;;;4990221;28;20030;-62
2024/01/13 11:53:35;;;;;;;7.35;4.07;;;4.00;99.90;;;;;;4985309;28;20033;-63
2024/01/13 11:56:03;;;;;;;17.65;8.02;;;4.00;99.90;;;;;;4986458;28;20118;-62
2024/01/13 11:58:30;;;;;;;11.52;4.75;;;4.10;99.90;;;;;;4982679;28;20751;-63
2024/01/13 12:00:56;;;;;;;10.43;4.75;;;4.10;99.90;;;;;;4986240;28;20038;-63
2024/01/13 12:03:22;;;;;;;12.50;6.07;;;3.90;99.90;;;;;;4988134;28;20699;-63
2024/01/13 12:05:49;;;;;;;9.00;4.28;;;3.90;99.90;;;;;;4985833;28;20483;-63
2024/01/13 12:08:15;;;;;;;3.10;2.00;;;3.80;99.90;;;;;;4989326;28;20033;-63
2024/01/13 12:10:42;;;;;;;10.82;5.50;;;3.90;99.90;;;;;;4986448;28;20418;-63
2024/01/13 12:13:18;;;;;;;19.23;9.00;;;4.00;99.90;;;;;;4986601;28;20113;-63
2024/01/13 12:15:47;;;;;;;10.35;4.75;;;4.10;99.90;;;;;;4988111;28;20121;-63
2024/01/13 12:18:25;;;;;;;12.00;5.30;;;4.10;99.90;;;;;;4999863;28;20034;-63
2024/01/13 12:21:00;;;;;;;6.07;3.75;;;4.10;99.90;;;;;;4986011;28;20030;-63
2024/01/13 12:23:26;;;;;;;5.00;2.50;;;4.20;99.90;;;;;;4989179;28;20681;-63
2024/01/13 12:25:53;;;;;;;11.80;5.07;;;4.20;99.90;;;;;;4985924;28;20117;-63
2024/01/13 12:28:20;;;;;;;4.68;2.95;;;4.10;99.90;;;;;;4985488;28;20042;-63
2024/01/13 12:30:51;;;;;;;2.58;1.80;;;3.90;99.90;;;;;;4986466;28;20697;-63
2024/01/13 12:33:18;;;;;;;2.03;1.83;;;3.40;99.90;;;;;;4985142;28;20030;-62
2024/01/13 12:35:45;;;;;;;2.85;1.70;;;3.30;99.90;;;;;;5000804;28;20045;-63
2024/01/13 12:38:10;;;;;;;5.00;1.20;;;3.30;99.90;;;;;;4985445;28;20058;-63
2024/01/13 12:40:36;;;;;;;2.63;1.45;;;3.40;99.90;;;;;;4985355;28;20054;-63
2024/01/13 12:43:04;;;;;;;1.90;1.55;;;3.50;99.90;;;;;;4984236;28;20396;-63
2024/01/13 12:45:31;;;;;;;2.22;1.40;;;3.50;99.90;;;;;;4985014;28;20042;-63
2024/01/13 12:47:57;;;;;;;1.60;1.25;;;3.40;99.90;;;;;;4984615;28;20038;-63
2024/01/13 12:50:23;;;;;;;1.20;1.10;;;3.40;99.90;;;;;;4985560;28;20038;-63
2024/01/13 12:52:49;;;;;;;2.67;1.40;;;3.50;99.90;;;;;;4989714;28;20030;-63